sensor_id;sensor_type;location;lat;lon;timestamp;pressure;altitude;pressure_sealevel;temperature;humidity
22206;BME280;11272;50.104;8.754;2023-06-10T00:00:40;100229.66;;;22.43;45.16
22206;BME280;11272;50.104;8.754;2023-06-10T00:03:10;100235.72;;;22.34;45.29
22206;BME280;11272;50.104;8.754;2023-06-10T00:05:36;100242.44;;;22.29;45.59
22206;BME280;11272;50.104;8.754;2023-06-10T00:08:07;100238.88;;;22.28;45.76
22206;BME280;11272;50.104;8.754;2023-06-10T00:10:34;100242.44;;;22.29;45.76
22206;BME280;11272;50.104;8.754;2023-06-10T00:13:04;100232.94;;;22.23;46.05
22206;BME280;11272;50.104;8.754;2023-06-10T00:15:30;100233.94;;;22.22;46.22
22206;BME280;11272;50.104;8.754;2023-06-10T00:17:56;100238.34;;;22.23;46.24
22206;BME280;11272;50.104;8.754;2023-06-10T00:20:22;100232.53;;;22.16;46.46
22206;BME280;11272;50.104;8.754;2023-06-10T00:22:49;100241.09;;;22.10;46.70
22206;BME280;11272;50.104;8.754;2023-06-10T00:25:15;100236.13;;;22.04;46.77
22206;BME280;11272;50.104;8.754;2023-06-10T00:27:41;100243.03;;;21.96;47.04
22206;BME280;11272;50.104;8.754;2023-06-10T00:30:07;100241.94;;;21.85;47.32
22206;BME280;11272;50.104;8.754;2023-06-10T00:32:33;100242.59;;;21.76;47.56
22206;BME280;11272;50.104;8.754;2023-06-10T00:35:02;100237.84;;;21.67;47.57
22206;BME280;11272;50.104;8.754;2023-06-10T00:37:32;100235.25;;;21.66;47.81
22206;BME280;11272;50.104;8.754;2023-06-10T00:39:57;100241.75;;;21.63;47.94
22206;BME280;11272;50.104;8.754;2023-06-10T00:42:24;100240.75;;;21.64;48.08
22206;BME280;11272;50.104;8.754;2023-06-10T00:44:51;100243.25;;;21.67;48.05
22206;BME280;11272;50.104;8.754;2023-06-10T00:47:17;100240.44;;;21.69;48.17
22206;BME280;11272;50.104;8.754;2023-06-10T00:49:43;100239.44;;;21.70;48.18
22206;BME280;11272;50.104;8.754;2023-06-10T00:52:10;100242.16;;;21.70;48.28
22206;BME280;11272;50.104;8.754;2023-06-10T00:54:37;100237.75;;;21.69;48.19
22206;BME280;11272;50.104;8.754;2023-06-10T00:57:04;100239.78;;;21.65;48.37
22206;BME280;11272;50.104;8.754;2023-06-10T00:59:30;100237.94;;;21.66;48.38
22206;BME280;11272;50.104;8.754;2023-06-10T01:01:56;100245.84;;;21.69;48.35
22206;BME280;11272;50.104;8.754;2023-06-10T01:04:22;100246.81;;;21.68;48.70
22206;BME280;11272;50.104;8.754;2023-06-10T01:09:50;100242.72;;;21.62;48.44
22206;BME280;11272;50.104;8.754;2023-06-10T01:14:47;100241.94;;;21.60;48.70
22206;BME280;11272;50.104;8.754;2023-06-10T01:17:14;100250.28;;;21.57;48.71
22206;BME280;11272;50.104;8.754;2023-06-10T01:19:42;100254.13;;;21.53;48.84
22206;BME280;11272;50.104;8.754;2023-06-10T01:22:10;100248.00;;;21.51;48.76
22206;BME280;11272;50.104;8.754;2023-06-10T01:24:36;100255.88;;;21.41;48.97
22206;BME280;11272;50.104;8.754;2023-06-10T01:27:05;100254.66;;;21.33;49.25
22206;BME280;11272;50.104;8.754;2023-06-10T01:29:44;100250.75;;;21.24;49.51
22206;BME280;11272;50.104;8.754;2023-06-10T01:32:20;100259.28;;;21.18;49.45
22206;BME280;11272;50.104;8.754;2023-06-10T01:34:47;100259.00;;;21.09;49.72
22206;BME280;11272;50.104;8.754;2023-06-10T01:37:18;100259.31;;;21.04;49.95
22206;BME280;11272;50.104;8.754;2023-06-10T01:39:46;100259.19;;;21.06;49.94
22206;BME280;11272;50.104;8.754;2023-06-10T01:42:12;100262.03;;;21.04;49.93
22206;BME280;11272;50.104;8.754;2023-06-10T01:44:39;100255.84;;;21.02;50.17
22206;BME280;11272;50.104;8.754;2023-06-10T01:47:08;100259.41;;;21.02;50.12
22206;BME280;11272;50.104;8.754;2023-06-10T01:49:34;100259.19;;;21.06;50.14
22206;BME280;11272;50.104;8.754;2023-06-10T01:52:00;100260.94;;;21.07;50.03
22206;BME280;11272;50.104;8.754;2023-06-10T01:54:25;100256.31;;;21.09;50.19
22206;BME280;11272;50.104;8.754;2023-06-10T01:56:51;100253.59;;;21.09;50.14
22206;BME280;11272;50.104;8.754;2023-06-10T01:59:17;100258.16;;;21.08;49.96
22206;BME280;11272;50.104;8.754;2023-06-10T02:01:42;100261.81;;;21.07;49.98
22206;BME280;11272;50.104;8.754;2023-06-10T02:04:09;100269.03;;;21.07;50.06
22206;BME280;11272;50.104;8.754;2023-06-10T02:06:35;100268.28;;;21.05;50.27
22206;BME280;11272;50.104;8.754;2023-06-10T02:09:02;100258.56;;;21.02;50.19
22206;BME280;11272;50.104;8.754;2023-06-10T02:11:28;100257.78;;;21.00;50.32
22206;BME280;11272;50.104;8.754;2023-06-10T02:13:54;100266.00;;;20.98;50.16
22206;BME280;11272;50.104;8.754;2023-06-10T02:16:20;100265.22;;;20.96;50.26
22206;BME280;11272;50.104;8.754;2023-06-10T02:18:46;100259.19;;;20.93;50.23
22206;BME280;11272;50.104;8.754;2023-06-10T02:21:12;100261.97;;;20.91;50.35
22206;BME280;11272;50.104;8.754;2023-06-10T02:23:38;100259.50;;;20.88;50.33
22206;BME280;11272;50.104;8.754;2023-06-10T02:26:03;100260.44;;;20.87;50.33
22206;BME280;11272;50.104;8.754;2023-06-10T02:28:29;100259.69;;;20.85;50.45
22206;BME280;11272;50.104;8.754;2023-06-10T02:30:57;100257.19;;;20.82;50.41
22206;BME280;11272;50.104;8.754;2023-06-10T02:33:23;100262.78;;;20.79;50.45
22206;BME280;11272;50.104;8.754;2023-06-10T02:35:49;100256.81;;;20.74;50.61
22206;BME280;11272;50.104;8.754;2023-06-10T02:38:15;100268.69;;;20.72;50.73
22206;BME280;11272;50.104;8.754;2023-06-10T02:40:42;100266.97;;;20.71;50.83
22206;BME280;11272;50.104;8.754;2023-06-10T02:43:09;100268.88;;;20.69;50.67
22206;BME280;11272;50.104;8.754;2023-06-10T02:45:35;100272.84;;;20.63;50.79
22206;BME280;11272;50.104;8.754;2023-06-10T02:48:03;100272.50;;;20.55;51.14
22206;BME280;11272;50.104;8.754;2023-06-10T02:50:29;100272.13;;;20.47;51.08
22206;BME280;11272;50.104;8.754;2023-06-10T02:53:04;100274.06;;;20.45;51.29
22206;BME280;11272;50.104;8.754;2023-06-10T02:55:31;100279.66;;;20.42;51.34
22206;BME280;11272;50.104;8.754;2023-06-10T02:58:01;100276.06;;;20.41;51.40
22206;BME280;11272;50.104;8.754;2023-06-10T03:00:28;100276.06;;;20.41;51.27
22206;BME280;11272;50.104;8.754;2023-06-10T03:02:54;100277.72;;;20.44;51.16
22206;BME280;11272;50.104;8.754;2023-06-10T03:05:25;100281.38;;;20.43;51.29
22206;BME280;11272;50.104;8.754;2023-06-10T03:07:53;100288.50;;;20.44;51.36
22206;BME280;11272;50.104;8.754;2023-06-10T03:10:19;100276.94;;;20.42;51.24
22206;BME280;11272;50.104;8.754;2023-06-10T03:12:45;100277.91;;;20.41;51.07
22206;BME280;11272;50.104;8.754;2023-06-10T03:15:11;100276.19;;;20.40;51.23
22206;BME280;11272;50.104;8.754;2023-06-10T03:17:40;100283.50;;;20.38;51.20
22206;BME280;11272;50.104;8.754;2023-06-10T03:20:06;100283.50;;;20.38;51.39
22206;BME280;11272;50.104;8.754;2023-06-10T03:22:34;100282.72;;;20.36;51.11
22206;BME280;11272;50.104;8.754;2023-06-10T03:25:05;100284.59;;;20.35;51.15
22206;BME280;11272;50.104;8.754;2023-06-10T03:27:33;100290.94;;;20.34;51.29
22206;BME280;11272;50.104;8.754;2023-06-10T03:30:03;100292.78;;;20.34;51.28
22206;BME280;11272;50.104;8.754;2023-06-10T03:32:29;100291.03;;;20.33;51.65
22206;BME280;11272;50.104;8.754;2023-06-10T03:34:55;100291.13;;;20.31;51.22
22206;BME280;11272;50.104;8.754;2023-06-10T03:37:26;100300.13;;;20.30;51.30
22206;BME280;11272;50.104;8.754;2023-06-10T03:39:52;100296.59;;;20.30;51.34
22206;BME280;11272;50.104;8.754;2023-06-10T03:42:21;100294.00;;;20.28;51.42
22206;BME280;11272;50.104;8.754;2023-06-10T03:44:47;100302.97;;;20.29;51.43
22206;BME280;11272;50.104;8.754;2023-06-10T03:47:12;100294.16;;;20.25;51.49
22206;BME280;11272;50.104;8.754;2023-06-10T03:49:38;100306.91;;;20.23;51.54
22206;BME280;11272;50.104;8.754;2023-06-10T03:52:06;100305.25;;;20.21;51.61
22206;BME280;11272;50.104;8.754;2023-06-10T03:54:32;100299.09;;;20.18;51.67
22206;BME280;11272;50.104;8.754;2023-06-10T03:57:02;100309.13;;;20.16;51.73
22206;BME280;11272;50.104;8.754;2023-06-10T03:59:30;100307.38;;;20.15;51.72
22206;BME280;11272;50.104;8.754;2023-06-10T04:01:56;100303.94;;;20.13;51.92
22206;BME280;11272;50.104;8.754;2023-06-10T04:04:23;100306.63;;;20.13;51.86
22206;BME280;11272;50.104;8.754;2023-06-10T04:06:48;100312.03;;;20.13;51.70
22206;BME280;11272;50.104;8.754;2023-06-10T04:09:14;100304.88;;;20.12;51.94
22206;BME280;11272;50.104;8.754;2023-06-10T04:11:44;100312.03;;;20.13;51.96
22206;BME280;11272;50.104;8.754;2023-06-10T04:14:09;100312.03;;;20.13;51.91
22206;BME280;11272;50.104;8.754;2023-06-10T04:16:35;100318.16;;;20.15;52.25
22206;BME280;11272;50.104;8.754;2023-06-10T04:19:02;100313.56;;;20.17;52.16
22206;BME280;11272;50.104;8.754;2023-06-10T04:21:28;100322.38;;;20.19;51.97
22206;BME280;11272;50.104;8.754;2023-06-10T04:23:53;100316.16;;;20.19;51.97
22206;BME280;11272;50.104;8.754;2023-06-10T04:26:19;100314.22;;;20.21;52.00
22206;BME280;11272;50.104;8.754;2023-06-10T04:28:45;100316.91;;;20.21;52.15
22206;BME280;11272;50.104;8.754;2023-06-10T04:31:11;100313.16;;;20.24;52.13
22206;BME280;11272;50.104;8.754;2023-06-10T04:33:38;100309.31;;;20.28;51.85
22206;BME280;11272;50.104;8.754;2023-06-10T04:36:06;100305.47;;;20.32;51.93
22206;BME280;11272;50.104;8.754;2023-06-10T04:38:32;100312.41;;;20.36;51.93
22206;BME280;11272;50.104;8.754;2023-06-10T04:40:59;100321.94;;;20.41;51.77
22206;BME280;11272;50.104;8.754;2023-06-10T04:43:29;100319.06;;;20.44;51.62
22206;BME280;11272;50.104;8.754;2023-06-10T04:45:56;100312.59;;;20.47;51.46
22206;BME280;11272;50.104;8.754;2023-06-10T04:48:21;100319.63;;;20.49;51.50
22206;BME280;11272;50.104;8.754;2023-06-10T04:50:49;100309.50;;;20.53;51.54
22206;BME280;11272;50.104;8.754;2023-06-10T04:53:16;100318.06;;;20.59;51.47
22206;BME280;11272;50.104;8.754;2023-06-10T04:55:44;100317.69;;;20.66;51.36
22206;BME280;11272;50.104;8.754;2023-06-10T04:58:10;100312.75;;;20.72;51.18
22206;BME280;11272;50.104;8.754;2023-06-10T05:00:36;100314.84;;;20.81;51.04
22206;BME280;11272;50.104;8.754;2023-06-10T05:03:01;100312.50;;;20.89;51.06
22206;BME280;11272;50.104;8.754;2023-06-10T05:05:27;100307.38;;;20.99;50.84
22206;BME280;11272;50.104;8.754;2023-06-10T05:07:52;100304.94;;;21.09;50.72
22206;BME280;11272;50.104;8.754;2023-06-10T05:10:18;100307.03;;;21.18;50.51
22206;BME280;11272;50.104;8.754;2023-06-10T05:12:43;100309.88;;;21.29;50.29
22206;BME280;11272;50.104;8.754;2023-06-10T05:15:09;100316.19;;;21.42;50.17
22206;BME280;11272;50.104;8.754;2023-06-10T05:17:35;100319.88;;;21.54;49.89
22206;BME280;11272;50.104;8.754;2023-06-10T05:20:01;100310.06;;;21.65;49.73
22206;BME280;11272;50.104;8.754;2023-06-10T05:22:27;100311.81;;;21.79;49.53
22206;BME280;11272;50.104;8.754;2023-06-10T05:24:55;100316.25;;;21.93;49.54
22206;BME280;11272;50.104;8.754;2023-06-10T05:27:20;100318.88;;;22.07;48.65
22206;BME280;11272;50.104;8.754;2023-06-10T05:29:47;100327.00;;;22.19;48.63
22206;BME280;11272;50.104;8.754;2023-06-10T05:32:13;100328.59;;;22.35;48.35
22206;BME280;11272;50.104;8.754;2023-06-10T05:34:38;100314.09;;;22.48;48.17
22206;BME280;11272;50.104;8.754;2023-06-10T05:37:04;100318.47;;;22.62;47.84
22206;BME280;11272;50.104;8.754;2023-06-10T05:39:30;100322.06;;;22.75;47.44
22206;BME280;11272;50.104;8.754;2023-06-10T05:41:55;100318.09;;;22.92;47.44
22206;BME280;11272;50.104;8.754;2023-06-10T05:44:26;100320.31;;;23.11;46.94
22206;BME280;11272;50.104;8.754;2023-06-10T05:46:51;100329.88;;;23.27;46.67
22206;BME280;11272;50.104;8.754;2023-06-10T05:49:17;100326.75;;;23.44;46.18
22206;BME280;11272;50.104;8.754;2023-06-10T05:51:42;100323.88;;;23.59;46.15
22206;BME280;11272;50.104;8.754;2023-06-10T05:54:09;100326.38;;;23.73;45.49
22206;BME280;11272;50.104;8.754;2023-06-10T05:56:35;100329.63;;;23.89;45.32
22206;BME280;11272;50.104;8.754;2023-06-10T05:59:00;100332.13;;;24.03;44.92
22206;BME280;11272;50.104;8.754;2023-06-10T06:01:30;100331.66;;;24.20;44.89
22206;BME280;11272;50.104;8.754;2023-06-10T06:03:56;100334.78;;;24.38;44.63
22206;BME280;11272;50.104;8.754;2023-06-10T06:06:21;100331.69;;;24.54;44.16
22206;BME280;11272;50.104;8.754;2023-06-10T06:08:47;100337.72;;;24.68;43.75
22206;BME280;11272;50.104;8.754;2023-06-10T06:11:13;100330.41;;;24.80;43.59
22206;BME280;11272;50.104;8.754;2023-06-10T06:13:39;100329.19;;;24.95;43.16
22206;BME280;11272;50.104;8.754;2023-06-10T06:16:04;100318.91;;;25.10;42.81
22206;BME280;11272;50.104;8.754;2023-06-10T06:18:30;100318.00;;;25.21;42.27
22206;BME280;11272;50.104;8.754;2023-06-10T06:20:56;100323.25;;;25.33;42.34
22206;BME280;11272;50.104;8.754;2023-06-10T06:23:21;100320.56;;;25.54;42.02
22206;BME280;11272;50.104;8.754;2023-06-10T06:25:46;100318.28;;;25.70;41.67
22206;BME280;11272;50.104;8.754;2023-06-10T06:28:12;100314.28;;;25.85;41.44
22206;BME280;11272;50.104;8.754;2023-06-10T06:30:38;100319.78;;;25.95;41.36
22206;BME280;11272;50.104;8.754;2023-06-10T06:33:03;100315.13;;;26.07;41.17
22206;BME280;11272;50.104;8.754;2023-06-10T06:35:34;100316.69;;;26.30;40.65
22206;BME280;11272;50.104;8.754;2023-06-10T06:38:00;100313.66;;;26.54;40.29
22206;BME280;11272;50.104;8.754;2023-06-10T06:40:28;100313.56;;;26.74;40.12
22206;BME280;11272;50.104;8.754;2023-06-10T06:42:54;100314.09;;;26.99;39.61
22206;BME280;11272;50.104;8.754;2023-06-10T06:45:35;100316.44;;;27.22;39.20
22206;BME280;11272;50.104;8.754;2023-06-10T06:48:01;100319.59;;;27.37;39.06
22206;BME280;11272;50.104;8.754;2023-06-10T06:50:27;100318.59;;;27.48;38.80
22206;BME280;11272;50.104;8.754;2023-06-10T06:52:53;100325.53;;;27.61;38.74
22206;BME280;11272;50.104;8.754;2023-06-10T06:55:18;100324.34;;;27.74;38.51
22206;BME280;11272;50.104;8.754;2023-06-10T06:57:44;100324.16;;;27.94;38.12
22206;BME280;11272;50.104;8.754;2023-06-10T07:00:12;100330.06;;;28.19;37.65
22206;BME280;11272;50.104;8.754;2023-06-10T07:02:38;100322.22;;;28.33;37.58
22206;BME280;11272;50.104;8.754;2023-06-10T07:05:04;100328.94;;;28.48;37.40
22206;BME280;11272;50.104;8.754;2023-06-10T07:07:30;100324.81;;;28.72;36.82
22206;BME280;11272;50.104;8.754;2023-06-10T07:09:56;100329.44;;;28.99;36.65
22206;BME280;11272;50.104;8.754;2023-06-10T07:12:21;100322.06;;;29.26;36.01
22206;BME280;11272;50.104;8.754;2023-06-10T07:14:50;100312.69;;;29.47;35.68
22206;BME280;11272;50.104;8.754;2023-06-10T07:17:16;100320.59;;;29.67;35.04
22206;BME280;11272;50.104;8.754;2023-06-10T07:19:45;100327.22;;;29.83;34.90
22206;BME280;11272;50.104;8.754;2023-06-10T07:22:10;100320.25;;;30.06;34.62
22206;BME280;11272;50.104;8.754;2023-06-10T07:24:36;100319.53;;;30.30;34.20
22206;BME280;11272;50.104;8.754;2023-06-10T07:27:02;100328.41;;;30.49;33.99
22206;BME280;11272;50.104;8.754;2023-06-10T07:29:27;100325.72;;;30.58;33.91
22206;BME280;11272;50.104;8.754;2023-06-10T07:31:53;100334.63;;;30.60;33.61
22206;BME280;11272;50.104;8.754;2023-06-10T07:34:19;100325.09;;;30.72;33.24
22206;BME280;11272;50.104;8.754;2023-06-10T07:36:44;100324.97;;;30.89;33.51
22206;BME280;11272;50.104;8.754;2023-06-10T07:39:12;100330.41;;;31.15;32.98
22206;BME280;11272;50.104;8.754;2023-06-10T07:41:38;100322.56;;;31.36;33.01
22206;BME280;11272;50.104;8.754;2023-06-10T07:44:03;100326.56;;;31.58;32.38
22206;BME280;11272;50.104;8.754;2023-06-10T07:46:29;100329.00;;;31.77;32.01
22206;BME280;11272;50.104;8.754;2023-06-10T07:48:55;100324.81;;;32.06;31.65
22206;BME280;11272;50.104;8.754;2023-06-10T07:51:21;100319.84;;;32.34;31.46
22206;BME280;11272;50.104;8.754;2023-06-10T07:53:47;100321.34;;;32.52;31.27
22206;BME280;11272;50.104;8.754;2023-06-10T07:56:12;100327.69;;;32.69;31.07
22206;BME280;11272;50.104;8.754;2023-06-10T07:58:38;100325.66;;;32.94;30.83
22206;BME280;11272;50.104;8.754;2023-06-10T08:01:03;100327.56;;;33.24;30.40
22206;BME280;11272;50.104;8.754;2023-06-10T08:03:29;100317.44;;;33.48;30.06
22206;BME280;11272;50.104;8.754;2023-06-10T08:05:54;100315.91;;;33.68;29.82
22206;BME280;11272;50.104;8.754;2023-06-10T08:08:20;100322.16;;;33.85;29.67
22206;BME280;11272;50.104;8.754;2023-06-10T08:10:46;100314.13;;;33.98;29.47
22206;BME280;11272;50.104;8.754;2023-06-10T08:13:12;100321.84;;;34.17;29.72
22206;BME280;11272;50.104;8.754;2023-06-10T08:15:37;100319.44;;;34.37;28.76
22206;BME280;11272;50.104;8.754;2023-06-10T08:18:03;100315.44;;;34.54;28.43
22206;BME280;11272;50.104;8.754;2023-06-10T08:20:28;100319.81;;;34.63;28.34
22206;BME280;11272;50.104;8.754;2023-06-10T08:22:54;100315.72;;;34.59;28.28
22206;BME280;11272;50.104;8.754;2023-06-10T08:25:20;100315.81;;;34.65;27.99
22206;BME280;11272;50.104;8.754;2023-06-10T08:27:47;100311.34;;;34.64;28.09
22206;BME280;11272;50.104;8.754;2023-06-10T08:30:13;100309.00;;;34.76;28.48
22206;BME280;11272;50.104;8.754;2023-06-10T08:32:42;100313.34;;;34.85;27.67
22206;BME280;11272;50.104;8.754;2023-06-10T08:35:07;100314.66;;;34.89;27.64
22206;BME280;11272;50.104;8.754;2023-06-10T08:37:33;100317.56;;;35.17;27.51
22206;BME280;11272;50.104;8.754;2023-06-10T08:39:59;100305.13;;;35.42;27.45
22206;BME280;11272;50.104;8.754;2023-06-10T08:42:33;100299.06;;;35.68;27.46
22206;BME280;11272;50.104;8.754;2023-06-10T08:45:04;100302.06;;;36.01;26.85
22206;BME280;11272;50.104;8.754;2023-06-10T08:47:33;100301.84;;;36.24;26.21
22206;BME280;11272;50.104;8.754;2023-06-10T08:50:04;100308.13;;;36.39;26.26
22206;BME280;11272;50.104;8.754;2023-06-10T08:52:40;100298.25;;;36.58;26.15
22206;BME280;11272;50.104;8.754;2023-06-10T08:55:23;100296.47;;;36.78;25.97
22206;BME280;11272;50.104;8.754;2023-06-10T08:57:51;100298.56;;;36.76;25.74
22206;BME280;11272;50.104;8.754;2023-06-10T09:00:18;100298.66;;;36.96;25.75
22206;BME280;11272;50.104;8.754;2023-06-10T09:02:44;100286.19;;;37.20;25.37
22206;BME280;11272;50.104;8.754;2023-06-10T09:05:10;100287.56;;;37.57;25.04
22206;BME280;11272;50.104;8.754;2023-06-10T09:07:36;100282.69;;;37.72;24.77
22206;BME280;11272;50.104;8.754;2023-06-10T09:10:03;100282.03;;;37.89;24.64
22206;BME280;11272;50.104;8.754;2023-06-10T09:12:35;100275.22;;;38.18;24.50
22206;BME280;11272;50.104;8.754;2023-06-10T09:15:04;100280.06;;;38.43;24.20
22206;BME280;11272;50.104;8.754;2023-06-10T09:17:30;100277.88;;;38.71;23.86
22206;BME280;11272;50.104;8.754;2023-06-10T09:19:55;100287.66;;;38.93;23.09
22206;BME280;11272;50.104;8.754;2023-06-10T09:22:23;100273.72;;;39.00;22.79
22206;BME280;11272;50.104;8.754;2023-06-10T09:24:49;100279.66;;;39.10;22.59
22206;BME280;11272;50.104;8.754;2023-06-10T09:27:15;100271.91;;;39.19;22.63
22206;BME280;11272;50.104;8.754;2023-06-10T09:29:47;100263.44;;;39.38;22.86
22206;BME280;11272;50.104;8.754;2023-06-10T09:32:17;100268.94;;;39.51;22.30
22206;BME280;11272;50.104;8.754;2023-06-10T09:34:44;100267.13;;;39.64;22.14
22206;BME280;11272;50.104;8.754;2023-06-10T09:37:10;100263.13;;;39.84;21.90
22206;BME280;11272;50.104;8.754;2023-06-10T09:39:38;100268.44;;;40.11;21.97
22206;BME280;11272;50.104;8.754;2023-06-10T09:42:22;100269.44;;;40.23;21.83
22206;BME280;11272;50.104;8.754;2023-06-10T09:44:51;100259.69;;;40.32;21.53
22206;BME280;11272;50.104;8.754;2023-06-10T09:47:21;100260.16;;;40.47;21.31
22206;BME280;11272;50.104;8.754;2023-06-10T09:49:51;100256.38;;;40.60;21.15
22206;BME280;11272;50.104;8.754;2023-06-10T09:52:24;100248.94;;;40.90;21.15
22206;BME280;11272;50.104;8.754;2023-06-10T09:54:52;100239.22;;;41.11;20.83
22206;BME280;11272;50.104;8.754;2023-06-10T09:57:18;100238.31;;;41.29;20.92
22206;BME280;11272;50.104;8.754;2023-06-10T09:59:45;100242.38;;;41.44;20.75
22206;BME280;11272;50.104;8.754;2023-06-10T10:02:17;100244.94;;;41.57;20.32
22206;BME280;11272;50.104;8.754;2023-06-10T10:04:44;100233.91;;;41.63;20.29
22206;BME280;11272;50.104;8.754;2023-06-10T10:07:11;100237.31;;;41.65;19.75
22206;BME280;11272;50.104;8.754;2023-06-10T10:09:38;100242.44;;;41.79;19.81
22206;BME280;11272;50.104;8.754;2023-06-10T10:12:11;100228.63;;;41.96;19.44
22206;BME280;11272;50.104;8.754;2023-06-10T10:14:39;100220.25;;;42.19;19.58
22206;BME280;11272;50.104;8.754;2023-06-10T10:17:10;100223.75;;;42.26;19.52
22206;BME280;11272;50.104;8.754;2023-06-10T10:19:50;100217.94;;;42.39;19.11
22206;BME280;11272;50.104;8.754;2023-06-10T10:22:25;100226.09;;;42.29;19.13
22206;BME280;11272;50.104;8.754;2023-06-10T10:24:55;100230.16;;;41.69;18.66
22206;BME280;11272;50.104;8.754;2023-06-10T10:27:28;100229.88;;;41.47;18.94
22206;BME280;11272;50.104;8.754;2023-06-10T10:29:58;100230.69;;;41.77;18.96
22206;BME280;11272;50.104;8.754;2023-06-10T10:32:40;100232.22;;;41.73;19.27
22206;BME280;11272;50.104;8.754;2023-06-10T10:35:12;100219.13;;;41.74;18.64
22206;BME280;11272;50.104;8.754;2023-06-10T10:37:42;100212.38;;;41.93;18.45
22206;BME280;11272;50.104;8.754;2023-06-10T10:40:09;100217.59;;;42.13;18.34
22206;BME280;11272;50.104;8.754;2023-06-10T10:42:36;100210.81;;;42.09;17.86
22206;BME280;11272;50.104;8.754;2023-06-10T10:45:02;100209.34;;;42.29;17.71
22206;BME280;11272;50.104;8.754;2023-06-10T10:47:30;100214.88;;;42.53;17.30
22206;BME280;11272;50.104;8.754;2023-06-10T10:49:56;100214.69;;;42.31;17.02
22206;BME280;11272;50.104;8.754;2023-06-10T10:52:26;100207.75;;;42.10;17.38
22206;BME280;11272;50.104;8.754;2023-06-10T10:54:53;100209.94;;;42.08;17.13
22206;BME280;11272;50.104;8.754;2023-06-10T10:57:21;100204.72;;;41.77;17.50
22206;BME280;11272;50.104;8.754;2023-06-10T10:59:57;100195.72;;;41.63;17.79
22206;BME280;11272;50.104;8.754;2023-06-10T11:02:45;100191.59;;;42.24;18.03
22206;BME280;11272;50.104;8.754;2023-06-10T11:05:15;100192.06;;;42.32;17.41
22206;BME280;11272;50.104;8.754;2023-06-10T11:07:51;100184.81;;;41.62;17.56
22206;BME280;11272;50.104;8.754;2023-06-10T11:10:18;100189.63;;;40.83;17.91
22206;BME280;11272;50.104;8.754;2023-06-10T11:12:53;100184.09;;;40.10;18.39
22206;BME280;11272;50.104;8.754;2023-06-10T11:15:20;100186.06;;;39.29;18.84
22206;BME280;11272;50.104;8.754;2023-06-10T11:26:16;100192.88;;;37.33;20.24
22206;BME280;11272;50.104;8.754;2023-06-10T11:31:30;100194.22;;;36.83;20.51
22206;BME280;11272;50.104;8.754;2023-06-10T11:34:03;100193.69;;;36.53;20.89
22206;BME280;11272;50.104;8.754;2023-06-10T11:36:31;100183.72;;;36.65;21.38
22206;BME280;11272;50.104;8.754;2023-06-10T11:39:05;100173.28;;;37.55;21.14
22206;BME280;11272;50.104;8.754;2023-06-10T11:41:32;100170.34;;;38.33;20.67
22206;BME280;11272;50.104;8.754;2023-06-10T11:44:04;100170.25;;;39.04;20.34
22206;BME280;11272;50.104;8.754;2023-06-10T11:46:30;100170.28;;;39.23;19.56
22206;BME280;11272;50.104;8.754;2023-06-10T11:48:59;100163.03;;;39.78;17.76
22206;BME280;11272;50.104;8.754;2023-06-10T11:51:27;100166.66;;;40.21;17.65
22206;BME280;11272;50.104;8.754;2023-06-10T11:53:54;100171.59;;;40.37;17.99
22206;BME280;11272;50.104;8.754;2023-06-10T11:56:22;100172.53;;;40.79;18.26
22206;BME280;11272;50.104;8.754;2023-06-10T11:59:05;100169.63;;;41.57;17.92
22206;BME280;11272;50.104;8.754;2023-06-10T12:01:34;100164.75;;;41.53;17.97
22206;BME280;11272;50.104;8.754;2023-06-10T12:04:04;100169.19;;;40.89;18.19
22206;BME280;11272;50.104;8.754;2023-06-10T12:06:40;100172.72;;;40.48;18.96
22206;BME280;11272;50.104;8.754;2023-06-10T12:09:34;100159.09;;;40.88;18.55
22206;BME280;11272;50.104;8.754;2023-06-10T12:12:01;100159.19;;;41.53;18.06
22206;BME280;11272;50.104;8.754;2023-06-10T12:14:52;100156.03;;;42.08;17.97
22206;BME280;11272;50.104;8.754;2023-06-10T12:17:20;100144.97;;;42.24;17.65
22206;BME280;11272;50.104;8.754;2023-06-10T12:19:47;100156.50;;;42.68;17.17
22206;BME280;11272;50.104;8.754;2023-06-10T12:22:13;100150.91;;;42.96;16.68
22206;BME280;11272;50.104;8.754;2023-06-10T12:24:45;100151.34;;;43.16;16.59
22206;BME280;11272;50.104;8.754;2023-06-10T12:27:22;100142.94;;;43.16;16.71
22206;BME280;11272;50.104;8.754;2023-06-10T12:29:51;100140.72;;;42.62;16.86
22206;BME280;11272;50.104;8.754;2023-06-10T12:32:19;100138.31;;;41.79;17.26
22206;BME280;11272;50.104;8.754;2023-06-10T12:34:48;100140.44;;;41.07;17.92
22206;BME280;11272;50.104;8.754;2023-06-10T12:37:14;100136.31;;;41.21;17.78
22206;BME280;11272;50.104;8.754;2023-06-10T12:39:41;100129.47;;;41.70;17.11
22206;BME280;11272;50.104;8.754;2023-06-10T12:42:09;100131.88;;;41.78;16.88
22206;BME280;11272;50.104;8.754;2023-06-10T12:44:39;100135.28;;;41.04;16.79
22206;BME280;11272;50.104;8.754;2023-06-10T12:47:11;100129.56;;;40.39;17.22
22206;BME280;11272;50.104;8.754;2023-06-10T12:49:40;100137.97;;;40.51;17.20
22206;BME280;11272;50.104;8.754;2023-06-10T12:52:06;100135.50;;;40.91;17.53
22206;BME280;11272;50.104;8.754;2023-06-10T12:54:33;100142.41;;;41.41;17.40
22206;BME280;11272;50.104;8.754;2023-06-10T12:56:59;100132.16;;;41.88;17.38
22206;BME280;11272;50.104;8.754;2023-06-10T12:59:27;100128.00;;;41.79;17.00
22206;BME280;11272;50.104;8.754;2023-06-10T13:01:55;100128.00;;;41.68;17.24
22206;BME280;11272;50.104;8.754;2023-06-10T13:04:21;100133.47;;;41.86;16.99
22206;BME280;11272;50.104;8.754;2023-06-10T13:06:48;100132.13;;;42.00;16.81
22206;BME280;11272;50.104;8.754;2023-06-10T13:09:14;100129.94;;;41.79;16.64